Clarkesville, Georgia
Current Conditions -  °F | °C
As of 10:15 AM on Monday 24 Nov 2014 (Local Time) from KTOC Reporting Station
Overcast Overcast  
Wind Chill: 60°   Ceiling: 400
Heat Index: 60°   Visibility: 7mi
Dew Point: 58°   Wind: 5mph
Humidity: 94%   Direction: 210°SSW
Pressure: 29.82"   Gusts: NA
Location:  34.61°N, 83.52°W
Report Text: KTOC 241515Z AUTO 21004KT 7SM BKN004 BKN015 OVC023 16/15 A2982 RMK AO2 T01550146
Loading
Personal Weather Stations






























Interactive Weather Map New forecast layout! Learn more

10-Day Weather Forecast

Advertisements
Track Severe Weather on mobile